Search for airport 
image banner adimage banner adimage banner ad
image banner ad

6K9 - Keosauqua Muni

Located in Keosauqua, United States

ICAO - 6K9, IATA -

Data provided by Airmate  

General information

Coordinates: N40°44'5" W91°56'56"
Elevation is 580 feet MSL.
Magnetic variation is 03° East
View others Airports in Iowa

Operational data

Special qualification required
Current time UTC:
Current local time:
Weather at : KFFL - Fairfield Muni ( 36 km )
METAR: KFFL 181815Z AUTO VRB03KT 10SM CLR 29/23 A2984 RMK A01
View NOTAMs / SUP AIP / TFR affecting this airport [VIEW]
Communications frequencies: [VIEW]

Runways:

RWY identifierQFULength (ft)Width (ft)SurfaceLDA (ft)
062275100GRASS
242275100GRASS

Airport contact information

Address: Keosauqua United States

Satellite view of 6K9